createdAt,value
2019-03-05T00:00:49.338Z,64.81
2019-03-05T00:01:49.388Z,65.28
2019-03-05T00:03:42.369Z,65.09
2019-03-05T00:04:42.417Z,65.00
2019-03-05T00:06:35.418Z,65.09
2019-03-05T00:07:35.453Z,65.47
2019-03-05T00:09:28.434Z,64.90
2019-03-05T00:10:28.481Z,65.28
2019-03-05T00:12:21.466Z,65.38
2019-03-05T00:13:21.514Z,65.86
2019-03-05T00:15:14.494Z,65.76
2019-03-05T00:16:14.549Z,66.90
2019-03-05T00:18:07.534Z,65.86
2019-03-05T00:19:07.584Z,66.05
2019-03-05T00:21:00.557Z,65.76
2019-03-05T00:22:00.670Z,65.76
2019-03-05T00:23:53.596Z,65.28
2019-03-05T00:24:53.652Z,65.86
2019-03-05T00:26:46.623Z,66.24
2019-03-05T00:27:46.688Z,65.67
2019-03-05T00:29:39.677Z,65.28
2019-03-05T00:30:39.724Z,64.90
2019-03-05T00:32:32.710Z,65.76
2019-03-05T00:33:33.016Z,65.86
2019-03-05T00:35:25.736Z,66.61
2019-03-05T00:36:25.794Z,66.24
2019-03-05T00:38:18.766Z,65.76
2019-03-05T00:39:18.823Z,66.33
2019-03-05T00:41:11.796Z,66.33
2019-03-05T00:42:11.850Z,66.71
2019-03-05T00:44:04.835Z,66.24
2019-03-05T00:45:04.883Z,66.42
2019-03-05T00:46:57.858Z,66.33
2019-03-05T00:47:57.913Z,66.42
2019-03-05T00:49:50.900Z,66.24
2019-03-05T00:50:50.945Z,66.52
2019-03-05T00:52:43.936Z,65.57
2019-03-05T00:53:43.982Z,66.33
2019-03-05T00:55:36.982Z,66.14
2019-03-05T00:56:37.012Z,66.14
2019-03-05T00:58:29.992Z,66.71
2019-03-05T00:59:30.042Z,66.05
2019-03-05T01:01:23.530Z,66.71
2019-03-05T01:02:23.588Z,66.42
2019-03-05T01:04:16.563Z,66.61
2019-03-05T01:05:16.621Z,66.33
2019-03-05T01:07:09.600Z,66.80
2019-03-05T01:08:09.652Z,66.71
2019-03-05T01:10:02.637Z,66.24
2019-03-05T01:11:02.682Z,66.42
2019-03-05T01:12:55.666Z,66.42
2019-03-05T01:13:55.716Z,66.14
2019-03-05T01:15:48.706Z,66.33
2019-03-05T01:16:48.752Z,65.67
2019-03-05T01:18:41.739Z,65.95
2019-03-05T01:19:41.788Z,66.52
2019-03-05T01:21:34.772Z,66.05
2019-03-05T01:22:34.824Z,66.71
2019-03-05T01:24:27.808Z,66.90
2019-03-05T01:25:27.858Z,67.00
2019-03-05T01:27:20.834Z,67.38
2019-03-05T01:28:20.889Z,67.47
2019-03-05T01:30:13.867Z,67.47
2019-03-05T01:31:13.916Z,67.57
2019-03-05T01:33:06.904Z,67.19
2019-03-05T01:34:06.950Z,66.80
2019-03-05T01:35:59.928Z,67.38
2019-03-05T01:36:59.983Z,67.09
2019-03-05T01:38:52.981Z,67.00
2019-03-05T01:39:53.030Z,66.80
2019-03-05T01:41:46.005Z,66.33
2019-03-05T01:42:46.063Z,66.61
2019-03-05T01:44:39.045Z,66.71
2019-03-05T01:45:39.092Z,66.42
2019-03-05T01:47:32.093Z,66.61
2019-03-05T01:48:32.125Z,66.05
2019-03-05T01:50:25.111Z,66.52
2019-03-05T01:51:25.153Z,66.33
2019-03-05T01:53:18.149Z,66.52
2019-03-05T01:54:18.225Z,66.42
2019-03-05T01:56:11.171Z,66.24
2019-03-05T01:57:11.228Z,66.33
2019-03-05T01:59:04.219Z,67.38
2019-03-05T02:00:04.258Z,67.76
2019-03-05T02:01:57.236Z,67.28
2019-03-05T02:02:57.288Z,67.38
2019-03-05T02:04:50.280Z,67.28
2019-03-05T02:05:50.394Z,67.38
2019-03-05T02:07:43.298Z,67.28
2019-03-05T02:08:43.358Z,67.38
2019-03-05T02:10:36.338Z,67.28
2019-03-05T02:11:36.387Z,67.38
2019-03-05T02:13:29.370Z,67.09
2019-03-05T02:14:29.418Z,67.85
2019-03-05T02:16:22.394Z,67.47
2019-03-05T02:17:22.451Z,68.42
2019-03-05T02:19:15.430Z,67.85
2019-03-05T02:20:15.492Z,67.85
2019-03-05T02:22:08.466Z,67.85
2019-03-05T02:23:08.519Z,67.38
2019-03-05T02:25:01.496Z,67.85
2019-03-05T02:26:01.548Z,67.94
2019-03-05T02:27:54.520Z,67.66
2019-03-05T02:28:54.579Z,68.33
2019-03-05T02:30:47.565Z,67.94
2019-03-05T02:31:47.627Z,67.94
2019-03-05T02:33:40.603Z,68.61
2019-03-05T02:34:40.651Z,68.42
2019-03-05T02:36:33.625Z,68.52
2019-03-05T02:37:33.681Z,68.33
2019-03-05T02:39:26.662Z,68.61
2019-03-05T02:40:26.712Z,68.61
2019-03-05T02:42:19.692Z,67.85
2019-03-05T02:43:19.742Z,68.04
2019-03-05T02:45:12.726Z,67.28
2019-03-05T02:46:12.778Z,67.19
2019-03-05T02:48:05.747Z,68.13
2019-03-05T02:49:05.810Z,66.80
2019-03-05T02:50:58.786Z,66.24
2019-03-05T02:51:58.882Z,65.47
2019-03-05T02:53:51.818Z,66.61
2019-03-05T02:54:51.867Z,66.87
2019-03-05T02:56:44.842Z,66.39
2019-03-05T02:57:45.148Z,66.11
2019-03-05T02:59:37.996Z,66.20
2019-03-05T03:00:37.948Z,66.39
2019-03-05T03:02:30.928Z,66.11
2019-03-05T03:03:30.991Z,67.06
2019-03-05T03:05:24.001Z,68.86
2019-03-05T03:06:24.019Z,69.91
2019-03-05T03:08:17.019Z,69.59
2019-03-05T03:09:17.053Z,69.21
2019-03-05T03:11:10.034Z,69.68
2019-03-05T03:12:10.078Z,69.11
2019-03-05T03:14:03.064Z,68.83
2019-03-05T03:15:03.119Z,68.26
2019-03-05T03:16:56.090Z,67.97
2019-03-05T03:17:56.445Z,67.40
2019-03-05T03:19:49.125Z,67.31
2019-03-05T03:20:49.174Z,67.31
2019-03-05T03:22:42.151Z,67.12
2019-03-05T03:23:42.205Z,67.88
2019-03-05T03:25:35.191Z,66.83
2019-03-05T03:26:35.236Z,66.27
2019-03-05T03:28:28.220Z,66.08
2019-03-05T03:29:28.269Z,65.41
2019-03-05T03:31:21.268Z,65.88
2019-03-05T03:32:21.315Z,65.69
2019-03-05T03:34:14.302Z,65.31
2019-03-05T03:35:14.483Z,65.12
2019-03-05T03:37:07.325Z,64.56
2019-03-05T03:38:07.381Z,64.08
2019-03-05T03:40:00.447Z,63.76
2019-03-05T03:41:00.414Z,63.39
2019-03-05T03:42:53.386Z,63.10
2019-03-05T03:43:53.443Z,63.20
2019-03-05T03:45:46.430Z,63.20
2019-03-05T03:46:46.476Z,62.53
2019-03-05T03:48:39.447Z,62.82
2019-03-05T03:49:39.501Z,62.15
2019-03-05T03:51:32.485Z,62.43
2019-03-05T03:52:32.540Z,63.13
2019-03-05T03:54:25.512Z,63.13
2019-03-05T03:55:25.561Z,62.85
2019-03-05T03:57:18.565Z,63.04
2019-03-05T03:58:18.594Z,62.46
2019-03-05T04:00:11.583Z,62.66
2019-03-05T04:01:11.658Z,62.75
2019-03-05T04:03:04.619Z,63.04
2019-03-05T04:04:04.673Z,62.94
2019-03-05T04:05:57.653Z,63.04
2019-03-05T04:06:57.703Z,63.32
2019-03-05T04:08:50.688Z,63.89
2019-03-05T04:09:50.743Z,62.85
2019-03-05T04:11:43.724Z,63.13
2019-03-05T04:12:43.784Z,63.51
2019-03-05T04:14:36.763Z,62.94
2019-03-05T04:15:36.828Z,63.42
2019-03-05T04:17:29.787Z,62.85
2019-03-05T04:18:29.842Z,62.75
2019-03-05T04:20:22.825Z,62.94
2019-03-05T04:21:22.873Z,62.94
2019-03-05T04:23:15.850Z,62.85
2019-03-05T04:24:15.907Z,63.51
2019-03-05T04:26:08.897Z,63.13
2019-03-05T04:27:08.936Z,63.13
2019-03-05T04:29:01.937Z,63.42
2019-03-05T04:30:01.977Z,62.56
2019-03-05T04:31:54.955Z,62.75
2019-03-05T04:32:54.995Z,63.42
2019-03-05T04:34:47.981Z,63.32
2019-03-05T04:35:48.024Z,63.23
2019-03-05T04:37:40.998Z,62.56
2019-03-05T04:38:41.055Z,62.75
2019-03-05T04:40:34.039Z,63.79
2019-03-05T04:41:34.091Z,63.89
2019-03-05T04:43:27.061Z,64.08
2019-03-05T04:44:27.116Z,63.98
2019-03-05T04:46:20.098Z,63.89
2019-03-05T04:47:20.145Z,63.70
2019-03-05T04:49:13.126Z,63.70
2019-03-05T04:50:13.176Z,63.89
2019-03-05T04:52:06.161Z,63.70
2019-03-05T04:53:06.211Z,64.56
2019-03-05T04:54:59.198Z,64.56
2019-03-05T04:55:59.250Z,64.27
2019-03-05T04:57:52.223Z,64.37
2019-03-05T04:58:52.280Z,64.46
2019-03-05T05:00:45.249Z,65.12
2019-03-05T05:01:45.308Z,64.27
2019-03-05T05:03:38.283Z,65.12
2019-03-05T05:04:38.340Z,65.12
2019-03-05T05:06:31.324Z,65.12
2019-03-05T05:07:31.374Z,65.31
2019-03-05T05:09:24.356Z,65.69
2019-03-05T05:10:24.417Z,65.41
2019-03-05T05:12:17.392Z,65.60
2019-03-05T05:13:17.438Z,65.41
2019-03-05T05:15:10.417Z,65.31
2019-03-05T05:16:10.469Z,64.75
2019-03-05T05:18:03.444Z,65.03
2019-03-05T05:19:03.501Z,65.03
2019-03-05T05:20:56.482Z,65.12
2019-03-05T05:21:56.535Z,64.75
2019-03-05T05:23:49.504Z,65.22
2019-03-05T05:24:49.561Z,65.31
2019-03-05T05:26:42.544Z,64.37
2019-03-05T05:27:42.587Z,64.56
2019-03-05T05:29:35.572Z,64.65
2019-03-05T05:30:35.628Z,64.27
2019-03-05T05:32:28.611Z,64.56
2019-03-05T05:33:28.660Z,64.17
2019-03-05T05:35:21.646Z,64.75
2019-03-05T05:36:21.685Z,64.37
2019-03-05T05:38:14.663Z,64.56
2019-03-05T05:39:14.719Z,64.65
2019-03-05T05:41:07.724Z,64.65
2019-03-05T05:42:07.772Z,64.46
2019-03-05T05:44:00.745Z,65.31
2019-03-05T05:45:00.801Z,65.41
2019-03-05T05:46:53.789Z,64.84
2019-03-05T05:47:53.832Z,64.65
2019-03-05T05:49:46.824Z,65.41
2019-03-05T05:50:46.868Z,65.12
2019-03-05T05:52:39.849Z,65.31
2019-03-05T05:53:39.893Z,65.60
2019-03-05T05:55:32.887Z,65.22
2019-03-05T05:56:32.934Z,65.12
2019-03-05T05:58:25.911Z,64.84
2019-03-05T05:59:25.962Z,64.56
2019-03-05T06:01:19.456Z,64.27
2019-03-05T06:02:19.505Z,63.23
2019-03-05T06:04:12.483Z,62.08
2019-03-05T06:05:12.538Z,61.61
2019-03-05T06:07:05.519Z,61.42
2019-03-05T06:08:05.571Z,60.38
2019-03-05T06:09:58.544Z,59.71
2019-03-05T06:10:58.607Z,60.10
2019-03-05T06:12:51.598Z,60.00
2019-03-05T06:13:51.644Z,60.28
2019-03-05T06:15:44.623Z,60.28
2019-03-05T06:16:44.673Z,61.04
2019-03-05T06:18:37.650Z,60.95
2019-03-05T06:19:37.706Z,60.95
2019-03-05T06:21:30.686Z,60.76
2019-03-05T06:22:30.739Z,60.10
2019-03-05T06:24:23.706Z,60.28
2019-03-05T06:25:23.764Z,61.33
2019-03-05T06:27:16.743Z,61.14
2019-03-05T06:28:16.790Z,61.42
2019-03-05T06:30:09.771Z,62.94
2019-03-05T06:31:09.827Z,63.79
2019-03-05T06:33:02.815Z,63.32
2019-03-05T06:34:02.864Z,63.13
2019-03-05T06:35:55.842Z,63.70
2019-03-05T06:36:55.921Z,63.42
2019-03-05T06:38:48.863Z,63.70
2019-03-05T06:39:48.916Z,64.17
2019-03-05T06:41:41.903Z,64.97
2019-03-05T06:42:41.949Z,64.78
2019-03-05T06:44:34.927Z,63.98
2019-03-05T06:45:34.981Z,63.98
2019-03-05T06:47:27.959Z,64.08
2019-03-05T06:48:28.005Z,62.78
2019-03-05T06:50:20.999Z,62.21
2019-03-05T06:51:21.043Z,61.14
2019-03-05T06:53:14.029Z,59.33
2019-03-05T06:54:14.081Z,58.20
2019-03-05T06:56:07.121Z,57.81
2019-03-05T06:57:07.111Z,57.06
2019-03-05T06:59:00.105Z,57.06
2019-03-05T07:00:00.363Z,57.24
2019-03-05T07:01:53.633Z,57.15
2019-03-05T07:02:53.676Z,57.34
2019-03-05T07:04:47.158Z,57.91
2019-03-05T07:05:47.213Z,58.86
2019-03-05T07:07:40.187Z,60.10
2019-03-05T07:08:40.239Z,60.85
2019-03-05T07:10:33.219Z,61.23
2019-03-05T07:11:33.271Z,61.80
2019-03-05T07:13:26.257Z,62.40
2019-03-05T07:14:26.299Z,62.27
2019-03-05T07:16:19.290Z,62.46
2019-03-05T07:17:19.342Z,62.85
2019-03-05T07:19:12.318Z,62.18
2019-03-05T07:20:12.372Z,62.66
2019-03-05T07:22:05.359Z,63.45
2019-03-05T07:23:05.404Z,63.45
2019-03-05T07:24:58.383Z,64.40
2019-03-05T07:25:58.436Z,65.16
2019-03-05T07:27:51.434Z,64.87
2019-03-05T07:28:51.486Z,65.16
2019-03-05T07:30:44.447Z,64.49
2019-03-05T07:31:44.499Z,65.44
2019-03-05T07:33:37.484Z,65.16
2019-03-05T07:34:37.535Z,65.35
2019-03-05T07:36:30.520Z,65.54
2019-03-05T07:37:30.571Z,65.44
2019-03-05T07:39:23.548Z,65.73
2019-03-05T07:40:23.599Z,65.54
2019-03-05T07:42:16.581Z,65.35
2019-03-05T07:43:16.630Z,64.87
2019-03-05T07:45:09.608Z,64.87
2019-03-05T07:46:09.661Z,64.49
2019-03-05T07:48:02.652Z,64.40
2019-03-05T07:49:02.702Z,64.59
2019-03-05T07:50:55.679Z,64.49
2019-03-05T07:51:55.734Z,65.73
2019-03-05T07:53:48.715Z,65.35
2019-03-05T07:54:48.763Z,66.61
2019-03-05T07:56:41.750Z,71.02
2019-03-05T07:57:41.794Z,69.88
2019-03-05T07:59:34.773Z,68.71
2019-03-05T08:00:34.826Z,67.32
2019-03-05T08:02:27.815Z,69.69
2019-03-05T08:03:27.865Z,70.64
2019-03-05T08:05:20.846Z,67.98
2019-03-05T08:06:20.899Z,67.28
2019-03-05T08:08:13.881Z,67.41
2019-03-05T08:09:13.928Z,66.52
2019-03-05T08:11:06.908Z,65.19
2019-03-05T08:12:06.960Z,64.14
2019-03-05T08:13:59.939Z,63.48
2019-03-05T08:14:59.993Z,63.48
2019-03-05T08:16:52.975Z,62.31
2019-03-05T08:17:53.029Z,62.21
2019-03-05T08:19:46.028Z,61.74
2019-03-05T08:20:46.084Z,61.26
2019-03-05T08:22:39.072Z,60.22
2019-03-05T08:23:39.117Z,60.13
2019-03-05T08:25:32.093Z,61.26
2019-03-05T08:26:32.149Z,61.26
2019-03-05T08:28:25.143Z,61.45
2019-03-05T08:29:25.180Z,60.69
2019-03-05T08:31:18.158Z,60.69
2019-03-05T08:32:18.216Z,60.03
2019-03-05T08:34:11.195Z,59.17
2019-03-05T08:35:11.244Z,58.13
2019-03-05T08:37:04.228Z,56.89
2019-03-05T08:38:04.277Z,56.51
2019-03-05T08:39:57.254Z,58.03
2019-03-05T08:40:57.308Z,58.32
2019-03-05T08:42:50.299Z,58.70
2019-03-05T08:43:50.349Z,58.80
2019-03-05T08:45:43.331Z,58.61
2019-03-05T08:46:43.380Z,58.89
2019-03-05T08:48:36.367Z,59.84
2019-03-05T08:49:36.416Z,59.36
2019-03-05T08:51:29.414Z,59.74
2019-03-05T08:52:29.496Z,60.06
2019-03-05T08:54:22.451Z,61.65
2019-03-05T08:55:22.508Z,61.65
2019-03-05T08:57:15.486Z,61.45
2019-03-05T08:58:15.535Z,60.69
2019-03-05T09:00:08.529Z,61.07
2019-03-05T09:01:08.560Z,60.22
2019-03-05T09:03:01.552Z,61.17
2019-03-05T09:04:01.600Z,61.36
2019-03-05T09:05:54.582Z,65.03
2019-03-05T09:06:54.637Z,67.38
2019-03-05T09:08:47.622Z,68.59
2019-03-05T09:09:47.666Z,67.13
2019-03-05T09:11:40.650Z,68.52
2019-03-05T09:12:40.710Z,70.14
2019-03-05T09:14:34.585Z,69.06
2019-03-05T09:15:33.734Z,68.30
2019-03-05T09:17:26.721Z,68.11
2019-03-05T09:18:26.770Z,68.77
2019-03-05T09:20:19.747Z,69.29
2019-03-05T09:21:19.811Z,68.77
2019-03-05T09:23:12.789Z,68.21
2019-03-05T09:24:12.855Z,67.54
2019-03-05T09:26:05.824Z,67.13
2019-03-05T09:27:05.882Z,67.22
2019-03-05T09:28:58.870Z,69.73
2019-03-05T09:29:58.917Z,69.82
2019-03-05T09:31:51.910Z,69.35
2019-03-05T09:32:51.952Z,67.35
2019-03-05T09:34:44.937Z,67.63
2019-03-05T09:35:44.978Z,68.01
2019-03-05T09:37:37.992Z,66.36
2019-03-05T09:38:38.047Z,66.84
2019-03-05T09:40:31.025Z,65.70
2019-03-05T09:41:31.079Z,66.36
2019-03-05T09:43:24.059Z,67.41
2019-03-05T09:44:24.110Z,66.36
2019-03-05T09:46:17.099Z,65.28
2019-03-05T09:47:17.148Z,65.09
2019-03-05T09:49:10.144Z,63.95
2019-03-05T09:50:10.193Z,64.72
2019-03-05T09:52:03.174Z,64.72
2019-03-05T09:53:03.229Z,64.53
2019-03-05T09:54:56.217Z,65.19
2019-03-05T09:55:56.267Z,64.43
2019-03-05T09:57:49.255Z,64.34
2019-03-05T09:58:49.301Z,65.47
2019-03-05T10:00:42.279Z,66.05
2019-03-05T10:01:42.331Z,65.41
2019-03-05T10:03:35.325Z,66.14
2019-03-05T10:04:35.386Z,66.27
2019-03-05T10:06:28.349Z,66.14
2019-03-05T10:07:28.404Z,66.42
2019-03-05T10:09:21.405Z,67.32
2019-03-05T10:10:21.452Z,66.42
2019-03-05T10:12:14.427Z,67.47
2019-03-05T10:13:14.482Z,67.00
2019-03-05T10:15:07.463Z,67.50
2019-03-05T10:16:07.514Z,67.22
2019-03-05T10:18:11.787Z,68.46
2019-03-05T10:19:00.543Z,68.17
2019-03-05T10:20:53.525Z,68.93
2019-03-05T10:21:53.576Z,68.93
2019-03-05T10:23:46.565Z,68.93
2019-03-05T10:24:46.611Z,68.36
2019-03-05T10:26:39.587Z,69.31
2019-03-05T10:27:39.645Z,67.98
2019-03-05T10:29:32.634Z,67.32
2019-03-05T10:30:32.686Z,67.88
2019-03-05T10:32:25.668Z,67.03
2019-03-05T10:33:25.717Z,67.22
2019-03-05T10:35:20.639Z,68.07
2019-03-05T10:36:18.751Z,66.74
2019-03-05T10:38:11.735Z,66.94
2019-03-05T10:39:11.784Z,68.46
2019-03-05T10:41:04.778Z,68.74
2019-03-05T10:42:04.832Z,68.74
2019-03-05T10:43:57.817Z,69.31
2019-03-05T10:44:57.863Z,68.84
2019-03-05T10:46:50.841Z,68.93
2019-03-05T10:47:50.899Z,70.17
2019-03-05T10:49:43.885Z,69.98
2019-03-05T10:50:43.937Z,71.50
2019-03-05T10:52:36.915Z,71.63
2019-03-05T10:53:36.967Z,72.16
2019-03-05T10:55:29.956Z,71.63
2019-03-05T10:56:30.006Z,71.44
2019-03-05T10:58:33.196Z,71.63
2019-03-05T10:59:23.051Z,72.58
2019-03-05T11:01:16.537Z,71.72
2019-03-05T11:02:16.590Z,72.11
2019-03-05T11:04:09.577Z,72.30
2019-03-05T11:05:09.625Z,73.00
2019-03-05T11:07:02.602Z,74.33
2019-03-05T11:08:02.666Z,74.33
2019-03-05T11:09:55.664Z,73.95
2019-03-05T11:10:55.698Z,74.14
2019-03-05T11:12:48.673Z,74.43
2019-03-05T11:13:48.726Z,77.00
2019-03-05T11:15:41.712Z,77.00
2019-03-05T11:16:41.776Z,76.81
2019-03-05T11:18:34.746Z,77.19
2019-03-05T11:19:34.795Z,77.76
2019-03-05T11:21:27.784Z,77.00
2019-03-05T11:22:27.846Z,76.81
2019-03-05T11:24:20.822Z,77.00
2019-03-05T11:25:20.874Z,76.90
2019-03-05T11:27:13.849Z,76.90
2019-03-05T11:28:13.907Z,77.56
2019-03-05T11:30:06.894Z,77.89
2019-03-05T11:31:06.944Z,77.51
2019-03-05T11:32:59.932Z,77.66
2019-03-05T11:33:59.987Z,76.14
2019-03-05T11:35:53.038Z,76.33
2019-03-05T11:36:53.030Z,75.76
2019-03-05T11:38:46.181Z,75.67
2019-03-05T11:39:46.070Z,76.61
2019-03-05T11:41:39.067Z,76.52
2019-03-05T11:42:39.113Z,76.52
2019-03-05T11:44:32.619Z,77.19
2019-03-05T11:45:32.150Z,76.52
2019-03-05T11:47:25.149Z,75.47
2019-03-05T11:48:25.209Z,75.38
2019-03-05T11:50:18.191Z,74.24
2019-03-05T11:51:18.241Z,75.85
2019-03-05T11:53:11.220Z,75.99
2019-03-05T11:54:11.278Z,77.03
2019-03-05T11:56:04.267Z,76.94
2019-03-05T11:57:04.318Z,76.65
2019-03-05T11:58:57.305Z,77.03
2019-03-05T11:59:57.349Z,79.03
2019-03-05T12:01:51.832Z,76.31
2019-03-05T12:02:51.888Z,80.50
2019-03-05T12:04:44.874Z,79.83
2019-03-05T12:05:44.922Z,79.64
2019-03-05T12:07:37.899Z,78.03
2019-03-05T12:08:37.959Z,78.44
2019-03-05T12:10:30.943Z,80.73
2019-03-05T12:11:30.998Z,82.54
2019-03-05T12:13:23.973Z,79.83
2019-03-05T12:14:24.031Z,79.93
2019-03-05T12:16:17.036Z,78.92
2019-03-05T12:17:17.088Z,77.11
2019-03-05T12:19:10.069Z,79.07
2019-03-05T12:20:10.126Z,79.64
2019-03-05T12:22:03.107Z,79.36
2019-03-05T12:23:06.735Z,79.83
2019-03-05T12:24:57.686Z,76.40
2019-03-05T12:25:56.214Z,76.88
2019-03-05T12:27:49.181Z,78.31
2019-03-05T12:28:49.239Z,77.74
2019-03-05T12:30:42.226Z,78.41
2019-03-05T12:31:42.278Z,78.50
2019-03-05T12:33:35.255Z,80.31
2019-03-05T12:34:35.314Z,78.59
2019-03-05T12:36:28.298Z,79.36
2019-03-05T12:37:28.349Z,80.12
2019-03-05T12:39:21.335Z,78.41
2019-03-05T12:40:21.390Z,79.74
2019-03-05T12:42:14.366Z,78.03
2019-03-05T12:43:14.424Z,79.46
2019-03-05T12:45:07.409Z,78.94
2019-03-05T12:46:07.460Z,79.51
2019-03-05T12:48:00.442Z,79.51
2019-03-05T12:49:00.497Z,79.70
2019-03-05T12:50:53.485Z,79.51
2019-03-05T12:51:53.534Z,78.85
2019-03-05T12:53:46.515Z,79.51
2019-03-05T12:54:46.571Z,79.55
2019-03-05T12:56:39.561Z,80.98
2019-03-05T12:57:39.607Z,80.69
2019-03-05T12:59:32.590Z,79.51
2019-03-05T13:00:32.648Z,79.70
2019-03-05T13:02:25.643Z,79.70
2019-03-05T13:03:25.697Z,79.55
2019-03-05T13:05:18.682Z,81.07
2019-03-05T13:06:18.734Z,79.74
2019-03-05T13:08:11.721Z,80.69
2019-03-05T13:09:13.573Z,79.97
2019-03-05T13:11:04.773Z,80.35
2019-03-05T13:12:04.816Z,80.11
2019-03-05T13:14:06.219Z,82.59
2019-03-05T13:14:57.857Z,81.15
2019-03-05T13:16:50.842Z,82.83
2019-03-05T13:17:51.589Z,81.59
2019-03-05T13:19:44.437Z,82.45
2019-03-05T13:20:43.942Z,82.17
2019-03-05T13:22:36.932Z,81.78
2019-03-05T13:23:36.971Z,81.49
2019-03-05T13:25:30.032Z,82.35
2019-03-05T13:26:30.008Z,81.40
2019-03-05T13:28:23.008Z,82.26
2019-03-05T13:29:23.056Z,80.64
2019-03-05T13:31:16.061Z,82.17
2019-03-05T13:32:16.794Z,81.78
2019-03-05T13:34:09.070Z,79.91
2019-03-05T13:35:09.128Z,81.63
2019-03-05T13:37:02.118Z,82.20
2019-03-05T13:38:03.272Z,81.73
2019-03-05T13:39:58.141Z,81.92
2019-03-05T13:40:55.207Z,82.87
2019-03-05T13:42:48.186Z,81.15
2019-03-05T13:43:48.246Z,81.12
2019-03-05T13:45:43.777Z,80.73
2019-03-05T13:46:41.297Z,81.12
2019-03-05T13:48:34.279Z,81.21
2019-03-05T13:49:40.618Z,81.30
2019-03-05T13:51:27.341Z,80.64
2019-03-05T13:52:27.393Z,82.40
2019-03-05T13:54:20.378Z,81.73
2019-03-05T13:55:23.465Z,82.40
2019-03-05T13:57:15.318Z,82.72
2019-03-05T13:58:13.468Z,83.06
2019-03-05T14:00:07.388Z,81.15
2019-03-05T14:01:06.509Z,81.12
2019-03-05T14:02:59.503Z,81.49
2019-03-05T14:03:59.559Z,80.83
2019-03-05T14:05:52.547Z,81.88
2019-03-05T14:06:52.601Z,80.92
2019-03-05T14:08:45.583Z,81.21
2019-03-05T14:09:45.662Z,82.31
2019-03-05T14:11:38.639Z,81.74
2019-03-05T14:12:38.673Z,80.73
2019-03-05T14:14:31.658Z,81.07
2019-03-05T14:15:31.708Z,81.17
2019-03-05T14:17:24.711Z,81.36
2019-03-05T14:18:24.755Z,82.12
2019-03-05T14:20:17.752Z,81.07
2019-03-05T14:21:17.799Z,80.75
2019-03-05T14:23:10.772Z,81.03
2019-03-05T14:24:10.835Z,80.75
2019-03-05T14:26:03.825Z,80.92
2019-03-05T14:27:03.869Z,83.64
2019-03-05T14:28:56.848Z,81.29
2019-03-05T14:29:56.894Z,81.01
2019-03-05T14:31:49.890Z,81.25
2019-03-05T14:32:49.951Z,81.44
2019-03-05T14:34:42.916Z,81.40
2019-03-05T14:35:42.975Z,81.12
2019-03-05T14:37:35.966Z,82.45
2019-03-05T14:38:36.101Z,82.35
2019-03-05T14:40:29.030Z,81.21
2019-03-05T14:41:29.082Z,80.73
2019-03-05T14:43:22.068Z,81.30
2019-03-05T14:44:22.098Z,80.73
2019-03-05T14:46:15.121Z,80.83
2019-03-05T14:47:15.139Z,81.59
2019-03-05T14:49:08.143Z,81.88
2019-03-05T14:50:08.212Z,80.64
2019-03-05T14:52:01.205Z,80.98
2019-03-05T14:53:01.239Z,80.98
2019-03-05T14:54:54.256Z,81.07
2019-03-05T14:55:54.648Z,81.93
2019-03-05T14:57:47.317Z,80.60
2019-03-05T14:58:47.382Z,80.60
2019-03-05T15:00:40.323Z,80.88
2019-03-05T15:01:40.471Z,80.50
2019-03-05T15:03:33.420Z,81.46
2019-03-05T15:04:33.471Z,80.50
2019-03-05T15:06:26.429Z,80.69
2019-03-05T15:07:26.523Z,79.93
2019-03-05T15:09:19.494Z,80.60
2019-03-05T15:10:19.516Z,81.07
2019-03-05T15:12:12.522Z,82.03
2019-03-05T15:13:17.304Z,80.88
2019-03-05T15:15:05.581Z,80.69
2019-03-05T15:16:05.615Z,82.21
2019-03-05T15:17:58.646Z,82.03
2019-03-05T15:18:58.683Z,81.36
2019-03-05T15:20:51.661Z,80.79
2019-03-05T15:21:51.734Z,82.07
2019-03-05T15:23:44.701Z,80.98
2019-03-05T15:24:44.751Z,81.97
2019-03-05T15:26:37.777Z,81.21
2019-03-05T15:27:37.785Z,80.98
2019-03-05T15:29:30.766Z,80.50
2019-03-05T15:30:30.888Z,81.26
2019-03-05T15:32:23.826Z,81.93
2019-03-05T15:33:23.897Z,81.07
2019-03-05T15:35:16.841Z,81.07
2019-03-05T15:38:09.892Z,81.84
2019-03-05T15:39:09.932Z,80.69
2019-03-05T15:41:02.928Z,79.64
2019-03-05T15:42:03.003Z,81.26
2019-03-05T15:43:56.002Z,81.49
2019-03-05T15:44:56.026Z,81.30
2019-03-05T15:46:48.994Z,80.64
2019-03-05T15:47:49.069Z,80.92
2019-03-05T15:49:42.060Z,81.30
2019-03-05T15:50:42.192Z,80.79
2019-03-05T15:52:35.103Z,82.03
2019-03-05T15:53:35.182Z,81.93
2019-03-05T15:55:28.091Z,80.88
2019-03-05T15:56:28.151Z,82.07
2019-03-05T15:58:21.156Z,82.50
2019-03-05T15:59:21.225Z,81.21
2019-03-05T16:01:22.067Z,81.12
2019-03-05T16:02:14.729Z,80.79
2019-03-05T16:04:07.719Z,80.60
2019-03-05T16:05:11.939Z,81.17
2019-03-05T16:07:00.750Z,81.36
2019-03-05T16:08:01.294Z,81.17
2019-03-05T16:09:53.792Z,80.84
2019-03-05T16:10:54.641Z,81.60
2019-03-05T16:12:46.836Z,81.51
2019-03-05T16:13:46.886Z,80.75
2019-03-05T16:15:41.817Z,80.94
2019-03-05T16:16:39.919Z,80.84
2019-03-05T16:18:32.905Z,80.75
2019-03-05T16:19:32.956Z,81.32
2019-03-05T16:21:25.933Z,80.55
2019-03-05T16:22:25.995Z,80.27
2019-03-05T16:24:19.001Z,80.84
2019-03-05T16:25:19.050Z,79.70
2019-03-05T16:27:12.039Z,80.75
2019-03-05T16:28:12.088Z,80.08
2019-03-05T16:30:05.063Z,80.55
2019-03-05T16:31:07.685Z,80.36
2019-03-05T16:33:00.034Z,80.55
2019-03-05T16:33:58.160Z,79.89
2019-03-05T16:35:52.298Z,80.27
2019-03-05T16:36:51.192Z,80.75
2019-03-05T16:38:44.183Z,79.99
2019-03-05T16:39:46.310Z,80.42
2019-03-05T16:41:37.218Z,80.08
2019-03-05T16:42:37.275Z,79.47
2019-03-05T16:44:30.257Z,79.66
2019-03-05T16:45:30.308Z,79.57
2019-03-05T16:47:23.295Z,79.47
2019-03-05T16:48:23.345Z,79.19
2019-03-05T16:50:16.327Z,79.19
2019-03-05T16:51:16.382Z,78.90
2019-03-05T16:53:09.368Z,79.38
2019-03-05T16:54:09.417Z,78.99
2019-03-05T16:56:02.415Z,79.38
2019-03-05T16:57:02.459Z,78.04
2019-03-05T16:58:55.444Z,78.33
2019-03-05T16:59:55.494Z,78.52
2019-03-05T17:01:48.980Z,77.53
2019-03-05T17:02:49.034Z,77.47
2019-03-05T17:04:42.049Z,78.19
2019-03-05T17:05:42.071Z,77.43
2019-03-05T17:07:35.160Z,77.43
2019-03-05T17:08:35.128Z,78.29
2019-03-05T17:10:29.971Z,77.43
2019-03-05T17:11:28.164Z,77.43
2019-03-05T17:13:21.154Z,77.53
2019-03-05T17:14:21.197Z,77.43
2019-03-05T17:16:14.288Z,76.57
2019-03-05T17:17:14.239Z,77.15
2019-03-05T17:19:07.229Z,77.81
2019-03-05T17:20:07.314Z,77.43
2019-03-05T17:22:00.293Z,77.43
2019-03-05T17:23:00.307Z,78.29
2019-03-05T17:24:53.289Z,77.24
2019-03-05T17:25:53.342Z,77.15
2019-03-05T17:27:46.322Z,77.91
2019-03-05T17:28:46.371Z,77.34
2019-03-05T17:30:39.367Z,77.91
2019-03-05T17:31:39.421Z,77.72
2019-03-05T17:33:32.410Z,78.10
2019-03-05T17:34:32.449Z,78.19
2019-03-05T17:36:25.431Z,77.81
2019-03-05T17:37:25.489Z,78.38
2019-03-05T17:39:18.486Z,77.87
2019-03-05T17:40:18.520Z,77.39
2019-03-05T17:42:11.501Z,77.81
2019-03-05T17:43:11.561Z,77.30
2019-03-05T17:45:04.541Z,77.58
2019-03-05T17:46:04.589Z,76.54
2019-03-05T17:47:57.572Z,77.01
2019-03-05T17:48:57.622Z,76.54
2019-03-05T17:50:50.597Z,76.92
2019-03-05T17:51:50.656Z,76.44
2019-03-05T17:53:43.634Z,75.87
2019-03-05T17:54:43.686Z,76.82
2019-03-05T17:56:36.665Z,77.11
2019-03-05T17:57:36.723Z,76.44
2019-03-05T17:59:29.713Z,76.82
2019-03-05T18:00:29.755Z,76.92
2019-03-05T18:02:23.242Z,76.16
2019-03-05T18:03:23.297Z,75.78
2019-03-05T18:05:16.275Z,75.45
2019-03-05T18:06:16.326Z,75.87
2019-03-05T18:08:09.321Z,75.21
2019-03-05T18:09:09.366Z,75.49
2019-03-05T18:11:02.354Z,75.74
2019-03-05T18:12:02.409Z,75.07
2019-03-05T18:13:55.386Z,75.36
2019-03-05T18:14:55.434Z,75.26
2019-03-05T18:16:48.435Z,75.17
2019-03-05T18:17:48.481Z,75.45
2019-03-05T18:19:41.461Z,74.88
2019-03-05T18:20:41.511Z,74.98
2019-03-05T18:22:34.527Z,75.26
2019-03-05T18:23:34.556Z,75.07
2019-03-05T18:25:27.538Z,74.69
2019-03-05T18:26:27.585Z,74.22
2019-03-05T18:28:20.570Z,73.84
2019-03-05T18:29:20.619Z,74.03
2019-03-05T18:31:13.596Z,74.22
2019-03-05T18:32:13.651Z,74.03
2019-03-05T18:34:06.640Z,74.12
2019-03-05T18:35:06.688Z,73.46